createdAt,value
2019-05-09T08:04:28.334Z,22.4
2019-05-09T08:05:30.502Z,22.5
2019-05-09T08:06:32.243Z,22.3
2019-05-09T08:07:34.173Z,22.2
2019-05-09T08:08:38.649Z,22.1
2019-05-09T08:09:40.617Z,22
2019-05-09T08:10:42.596Z,22
2019-05-09T08:11:44.496Z,22
2019-05-09T08:12:48.749Z,21.9
2019-05-09T08:13:50.663Z,21.9
2019-05-09T08:15:07.123Z,21.9
2019-05-09T08:16:21.319Z,21.9
2019-05-09T08:17:23.036Z,21.9
2019-05-09T08:18:24.637Z,22
2019-05-09T08:19:28.616Z,21.9
2019-05-09T08:20:30.240Z,21.9
2019-05-09T08:21:31.323Z,21.8
2019-05-09T08:22:33.230Z,21.9
2019-05-09T08:23:34.607Z,21.9
2019-05-09T08:24:38.404Z,21.8
2019-05-09T08:25:40.026Z,22
2019-05-09T08:26:41.957Z,22
2019-05-09T08:27:43.901Z,22
2019-05-09T08:28:47.951Z,22
2019-05-09T08:29:49.734Z,21.9
2019-05-09T08:30:51.640Z,22
2019-05-09T08:31:53.270Z,22
2019-05-09T08:32:55.173Z,22.1
2019-05-09T08:33:58.925Z,22.1
2019-05-09T08:35:01.173Z,22
2019-05-09T08:36:03.200Z,22
2019-05-09T08:37:05.099Z,21.8
2019-05-09T08:38:09.010Z,22
2019-05-09T08:39:10.637Z,21.9
2019-05-09T08:40:12.538Z,21.9
2019-05-09T08:41:14.437Z,21.9
2019-05-09T08:42:19.954Z,21.8
2019-05-09T08:43:22.075Z,22
2019-05-09T08:44:23.971Z,21.9
2019-05-09T08:45:30.335Z,21.9
2019-05-09T08:46:33.251Z,21.9
2019-05-09T08:47:34.878Z,21.9
2019-05-09T08:48:38.631Z,21.9
2019-05-09T08:49:40.522Z,21.9
2019-05-09T08:50:42.147Z,21.9
2019-05-09T08:51:54.871Z,21.9
2019-05-09T08:53:20.653Z,21.8
2019-05-09T08:54:22.277Z,21.9
2019-05-09T08:55:24.179Z,21.9
2019-05-09T08:56:28.474Z,22
2019-05-09T08:57:30.420Z,21.9
2019-05-09T08:58:32.047Z,21.9
2019-05-09T08:59:33.672Z,21.9
2019-05-09T09:00:35.299Z,22
2019-05-09T09:01:52.922Z,21.9
2019-05-09T09:03:22.831Z,21.8
2019-05-09T09:04:24.177Z,21.9
2019-05-09T09:05:25.804Z,21.9
2019-05-09T09:06:29.982Z,21.9
2019-05-09T09:07:31.883Z,21.9
2019-05-09T09:08:33.511Z,21.9
2019-05-09T09:09:37.596Z,22
2019-05-09T09:10:39.162Z,21.9
2019-05-09T09:11:41.061Z,21.9
2019-05-09T09:12:42.693Z,21.9
2019-05-09T09:13:44.153Z,22
2019-05-09T09:14:47.771Z,22
2019-05-09T09:16:07.455Z,22
2019-05-09T09:17:23.579Z,22
2019-05-09T09:18:28.064Z,22
2019-05-09T09:19:29.868Z,22
2019-05-09T09:20:31.195Z,22
2019-05-09T09:21:32.554Z,22
2019-05-09T09:22:34.182Z,21.7
2019-05-09T09:23:43.817Z,21.8
2019-05-09T09:24:51.666Z,21.9
2019-05-09T09:25:53.569Z,21.9
2019-05-09T09:26:58.124Z,21.9
2019-05-09T09:27:59.746Z,21.8
2019-05-09T09:29:01.663Z,21.9
2019-05-09T09:30:16.369Z,21.9
2019-05-09T09:31:29.395Z,22
2019-05-09T09:32:31.021Z,22
2019-05-09T09:33:32.959Z,22
2019-05-09T09:34:34.403Z,21.9
2019-05-09T09:35:38.799Z,21.9
2019-05-09T09:36:40.699Z,21.9
2019-05-09T09:37:48.243Z,21.9
2019-05-09T09:38:53.724Z,21.9
2019-05-09T09:39:58.178Z,21.9
2019-05-09T09:41:00.171Z,22
2019-05-09T09:42:01.525Z,21.9
2019-05-09T09:43:03.150Z,21.9
2019-05-09T09:44:05.048Z,21.9
2019-05-09T09:45:09.699Z,21.9
2019-05-09T09:46:14.577Z,22.2
2019-05-09T09:47:22.854Z,21.9
2019-05-09T09:48:25.156Z,21.9
2019-05-09T09:49:29.637Z,22.1
2019-05-09T09:50:31.472Z,22.5
2019-05-09T09:51:33.102Z,22.6
2019-05-09T09:52:35.011Z,22.7
2019-05-09T09:53:39.847Z,22.9
2019-05-09T09:54:41.515Z,22.7
2019-05-09T09:55:43.412Z,22.4
2019-05-09T09:56:44.739Z,22.9
2019-05-09T09:57:49.264Z,22.7
2019-05-09T09:58:50.889Z,22.8
2019-05-09T09:59:52.252Z,22.5
2019-05-09T10:00:54.181Z,22.1
2019-05-09T10:01:58.779Z,22.9
2019-05-09T10:03:00.932Z,22.9
2019-05-09T10:04:16.460Z,23.1
2019-05-09T10:05:27.772Z,22.7
2019-05-09T10:06:29.727Z,23.3
2019-05-09T10:07:31.626Z,23.1
2019-05-09T10:08:33.578Z,22.8
2019-05-09T10:09:35.186Z,22.6
2019-05-09T10:10:36.818Z,22.7
2019-05-09T10:11:38.422Z,22.5
2019-05-09T10:12:44.249Z,23.7
2019-05-09T10:13:52.022Z,24
2019-05-09T10:14:54.042Z,25.7
2019-05-09T10:15:58.796Z,24.4
2019-05-09T10:17:00.976Z,23.7
2019-05-09T10:18:02.926Z,23.3
2019-05-09T10:19:04.449Z,23.3
2019-05-09T10:20:08.760Z,23.2
2019-05-09T10:21:10.395Z,23.1
2019-05-09T10:22:11.767Z,22.9
2019-05-09T10:23:18.714Z,22.8
2019-05-09T10:24:22.914Z,22.8
2019-05-09T10:25:24.626Z,22.8
2019-05-09T10:26:28.567Z,22.8
2019-05-09T10:27:30.455Z,22.9
2019-05-09T10:28:32.355Z,22.9
2019-05-09T10:29:34.257Z,22.8
2019-05-09T10:30:38.208Z,22.8
2019-05-09T10:31:40.122Z,22.7
2019-05-09T10:32:42.014Z,22.7
2019-05-09T10:33:43.915Z,22.6
2019-05-09T10:34:48.452Z,22.6
2019-05-09T10:35:50.750Z,22.5
2019-05-09T10:36:52.651Z,22.6
2019-05-09T10:37:54.551Z,22.5
2019-05-09T10:38:59.042Z,22.6
2019-05-09T10:40:00.646Z,22.4
2019-05-09T10:41:02.568Z,22.5
2019-05-09T10:42:04.708Z,22.5
2019-05-09T10:43:08.330Z,22.4
2019-05-09T10:44:10.244Z,22.5
2019-05-09T10:45:11.872Z,22.4
2019-05-09T10:46:16.221Z,22.4
2019-05-09T10:47:21.121Z,22.4
2019-05-09T10:48:23.996Z,22.5
2019-05-09T10:49:25.815Z,22.5
2019-05-09T10:50:33.645Z,22.5
2019-05-09T10:51:48.565Z,22.5
2019-05-09T10:52:50.237Z,22.5
2019-05-09T10:53:52.140Z,22.5
2019-05-09T10:54:54.040Z,22.5
2019-05-09T10:55:55.715Z,22.6
2019-05-09T10:56:58.040Z,22.6
2019-05-09T10:58:02.215Z,22.5
2019-05-09T10:59:04.366Z,22.6
2019-05-09T11:00:09.012Z,22.6
2019-05-09T11:01:10.960Z,22.5
2019-05-09T11:02:12.583Z,22.6
2019-05-09T11:03:14.221Z,22.6
2019-05-09T11:04:18.516Z,22.7
2019-05-09T11:05:20.420Z,22.6
2019-05-09T11:06:22.044Z,22.7
2019-05-09T11:07:23.992Z,22.6
2019-05-09T11:08:26.283Z,22.6
2019-05-09T11:09:30.211Z,22.6
2019-05-09T11:10:32.907Z,22.6
2019-05-09T11:11:34.928Z,22.6
2019-05-09T11:12:36.891Z,22.7
2019-05-09T11:13:39.038Z,22.6
2019-05-09T11:14:40.488Z,22.6
2019-05-09T11:15:42.175Z,22.7
2019-05-09T11:16:47.126Z,22.7
2019-05-09T11:18:21.212Z,22.8
2019-05-09T11:19:23.111Z,22.8
2019-05-09T11:20:28.080Z,22.9
2019-05-09T11:21:29.741Z,22.9
2019-05-09T11:22:31.368Z,23
2019-05-09T11:23:33.271Z,23
2019-05-09T11:24:42.799Z,23.1
2019-05-09T11:25:52.639Z,23.1
2019-05-09T11:26:54.551Z,23.2
2019-05-09T11:28:08.065Z,23.2
2019-05-09T11:29:18.947Z,23.2
2019-05-09T11:30:20.558Z,23.2
2019-05-09T11:31:22.484Z,23.2
2019-05-09T11:32:24.417Z,23.2
2019-05-09T11:33:29.113Z,23.2
2019-05-09T11:34:31.007Z,23.2
2019-05-09T11:35:32.628Z,23.3
2019-05-09T11:36:34.297Z,23.3
2019-05-09T11:37:38.545Z,23.3
2019-05-09T11:38:43.827Z,23.2
2019-05-09T11:41:45.171Z,23.3
2019-05-09T11:42:49.477Z,23.3
2019-05-09T11:43:51.095Z,23.4
2019-05-09T11:44:52.423Z,23.3
2019-05-09T11:45:54.343Z,23.4
2019-05-09T11:46:58.074Z,23.4
2019-05-09T11:48:00.165Z,23.4
2019-05-09T11:49:01.790Z,23.3
2019-05-09T11:50:03.702Z,23.3
2019-05-09T11:51:05.643Z,23.4
2019-05-09T11:52:09.846Z,23.5
2019-05-09T11:53:11.735Z,23.5
2019-05-09T11:54:16.324Z,23.4
2019-05-09T11:55:29.519Z,23.5
2019-05-09T11:56:43.899Z,23.4
2019-05-09T11:57:48.330Z,23.5
2019-05-09T11:58:50.180Z,23.4
2019-05-09T11:59:52.078Z,23.4
2019-05-09T12:00:53.979Z,23.4
2019-05-09T12:01:58.367Z,23.4
2019-05-09T12:03:00.457Z,23.5
2019-05-09T12:04:02.360Z,23.5
2019-05-09T12:05:03.981Z,23.4
2019-05-09T12:06:07.700Z,23.4
2019-05-09T12:07:09.552Z,23.5
2019-05-09T12:08:11.464Z,23.6
2019-05-09T12:09:14.722Z,23.5
2019-05-09T12:10:18.688Z,23.5
2019-05-09T12:11:20.730Z,23.6
2019-05-09T12:12:22.678Z,23.6
2019-05-09T12:13:24.575Z,23.5
2019-05-09T12:14:27.599Z,23.5
2019-05-09T12:15:29.352Z,23.5
2019-05-09T12:16:31.281Z,23.5
2019-05-09T12:17:49.652Z,23.6
2019-05-09T12:19:12.077Z,23.6
2019-05-09T12:20:13.991Z,23.6
2019-05-09T12:21:19.268Z,23.5
2019-05-09T12:22:21.164Z,23.5
2019-05-09T12:23:23.060Z,23.5
2019-05-09T12:24:24.685Z,23.5
2019-05-09T12:25:28.240Z,23.5
2019-05-09T12:26:30.304Z,23.5
2019-05-09T12:27:31.921Z,23.5
2019-05-09T12:28:33.822Z,23.5
2019-05-09T12:29:35.420Z,23.4
2019-05-09T12:30:39.656Z,23.5
2019-05-09T12:31:41.620Z,23.5
2019-05-09T12:32:43.225Z,23.5
2019-05-09T12:33:47.598Z,23.5
2019-05-09T12:34:50.158Z,23.5
2019-05-09T12:35:51.481Z,23.5
2019-05-09T12:36:53.104Z,23.5
2019-05-09T12:37:55.003Z,23.5
2019-05-09T12:38:59.003Z,23.5
2019-05-09T12:40:01.327Z,23.5
2019-05-09T12:41:03.222Z,23.5
2019-05-09T12:42:04.845Z,23.5
2019-05-09T12:43:09.804Z,23.5
2019-05-09T12:44:11.722Z,23.5
2019-05-09T12:45:13.059Z,23.5
2019-05-09T12:46:14.955Z,23.5
2019-05-09T12:47:18.865Z,23.5
2019-05-09T12:48:20.156Z,23.6
2019-05-09T12:49:21.750Z,23.5
2019-05-09T12:50:23.369Z,23.6
2019-05-09T12:51:25.002Z,23.4
2019-05-09T12:52:28.987Z,23.5
2019-05-09T12:53:30.611Z,23.5
2019-05-09T12:54:31.944Z,23.5
2019-05-09T12:55:33.841Z,23.5
2019-05-09T12:56:38.213Z,23.5
2019-05-09T12:57:40.063Z,23.4
2019-05-09T12:58:41.422Z,23.5
2019-05-09T12:59:48.422Z,23.6
2019-05-09T13:00:54.012Z,23.5
2019-05-09T13:01:58.002Z,23.5
2019-05-09T13:03:00.054Z,23.5
2019-05-09T13:04:01.695Z,23.5
2019-05-09T13:05:03.617Z,23.4
2019-05-09T13:06:07.741Z,23.5
2019-05-09T13:07:09.618Z,23.5
2019-05-09T13:08:11.707Z,23.4
2019-05-09T13:09:13.335Z,23.5
2019-05-09T13:10:15.043Z,23.5
2019-05-09T13:11:20.328Z,23.5
2019-05-09T13:12:21.954Z,23.6
2019-05-09T13:13:24.388Z,23.5
2019-05-09T13:14:29.527Z,23.5
2019-05-09T13:15:31.762Z,23.5
2019-05-09T13:16:44.853Z,23.4
2019-05-09T13:17:54.917Z,23.5
2019-05-09T13:19:02.215Z,23.6
2019-05-09T13:20:04.486Z,23.5
2019-05-09T13:21:08.951Z,23.5
2019-05-09T13:22:10.911Z,23.6
2019-05-09T13:23:12.263Z,23.6
2019-05-09T13:24:13.965Z,23.6
2019-05-09T13:25:14.746Z,23.6
2019-05-09T13:26:19.765Z,23.6
2019-05-09T13:27:21.664Z,23.6
2019-05-09T13:28:23.010Z,23.6
2019-05-09T13:29:24.634Z,23.6
2019-05-09T13:30:28.435Z,23.6
2019-05-09T13:31:30.453Z,23.6
2019-05-09T13:32:40.077Z,23.6
2019-05-09T13:33:41.987Z,23.6
2019-05-09T13:34:43.889Z,23.6
2019-05-09T13:35:45.788Z,23.7
2019-05-09T13:36:50.094Z,23.7
2019-05-09T13:37:51.995Z,23.7
2019-05-09T13:38:58.006Z,23.7
2019-05-09T13:40:10.297Z,23.7
2019-05-09T13:41:12.198Z,23.6
2019-05-09T13:42:13.825Z,23.7
2019-05-09T13:43:15.456Z,23.7
2019-05-09T13:44:20.199Z,23.7
2019-05-09T13:45:22.095Z,23.8
2019-05-09T13:46:23.991Z,23.8
2019-05-09T13:47:28.669Z,23.8
2019-05-09T13:48:55.195Z,23.8
2019-05-09T13:50:18.152Z,23.8
2019-05-09T13:51:20.147Z,23.8
2019-05-09T13:52:22.084Z,23.8
2019-05-09T13:53:23.699Z,23.8
2019-05-09T13:54:25.025Z,23.8
2019-05-09T13:55:29.159Z,23.8
2019-05-09T13:56:30.797Z,23.9
2019-05-09T13:57:32.693Z,23.9
2019-05-09T13:58:34.293Z,23.9
2019-05-09T13:59:38.832Z,23.9
2019-05-09T14:00:55.648Z,23.9
2019-05-09T14:02:04.001Z,23.9
2019-05-09T14:03:08.063Z,23.9
2019-05-09T14:04:09.848Z,23.9
2019-05-09T14:05:11.762Z,23.8
2019-05-09T14:06:13.104Z,23.8
2019-05-09T14:07:14.734Z,23.8
2019-05-09T14:08:18.141Z,23.8
2019-05-09T14:09:20.244Z,23.8
2019-05-09T14:10:21.864Z,23.8
2019-05-09T14:11:23.192Z,23.9
2019-05-09T14:12:25.090Z,23.8
2019-05-09T14:13:29.561Z,23.8
2019-05-09T14:14:30.636Z,23.8
2019-05-09T14:15:32.532Z,23.8
2019-05-09T14:16:34.154Z,23.8
2019-05-09T14:17:45.869Z,23.8
2019-05-09T14:18:56.428Z,23.8
2019-05-09T14:20:46.059Z,23.8
2019-05-09T14:21:48.260Z,23.9
2019-05-09T14:22:50.241Z,23.8
2019-05-09T14:24:05.578Z,23.8
2019-05-09T14:25:20.082Z,23.9
2019-05-09T14:26:21.978Z,23.9
2019-05-09T14:27:24.592Z,23.9
2019-05-09T14:28:28.546Z,23.9
2019-05-09T14:29:31.717Z,23.9
2019-05-09T14:30:33.702Z,23.8
2019-05-09T14:31:35.602Z,23.8
2019-05-09T14:32:40.433Z,23.8
2019-05-09T14:33:41.813Z,23.9
2019-05-09T14:34:43.709Z,23.8
2019-05-09T14:35:47.695Z,23.8
2019-05-09T14:36:49.505Z,23.9
2019-05-09T14:37:51.534Z,23.8
2019-05-09T14:38:53.430Z,23.8
2019-05-09T14:39:58.786Z,23.8
2019-05-09T14:41:10.413Z,23.8
2019-05-09T14:42:12.019Z,23.8
2019-05-09T14:43:13.619Z,23.9
2019-05-09T14:44:17.834Z,23.8
2019-05-09T14:45:20.011Z,23.8
2019-05-09T14:46:21.911Z,23.9
2019-05-09T14:47:23.808Z,23.9
2019-05-09T14:48:28.720Z,23.9
2019-05-09T14:49:40.050Z,23.9
2019-05-09T14:50:50.197Z,23.9
2019-05-09T14:51:51.824Z,23.8
2019-05-09T14:52:53.834Z,23.9
2019-05-09T14:53:55.182Z,23.9
2019-05-09T14:55:00.291Z,23.9
2019-05-09T14:56:01.942Z,23.9
2019-05-09T14:57:03.844Z,23.9
2019-05-09T14:58:07.790Z,23.9
2019-05-09T14:59:10.057Z,23.9
2019-05-09T15:00:11.407Z,23.9
2019-05-09T15:01:13.320Z,23.9
2019-05-09T15:02:17.606Z,23.9
2019-05-09T15:03:19.775Z,23.9
2019-05-09T15:04:21.373Z,23.9
2019-05-09T15:05:22.998Z,23.9
2019-05-09T15:06:24.897Z,24
2019-05-09T15:07:29.210Z,23.9
2019-05-09T15:08:31.108Z,23.9
2019-05-09T15:09:32.734Z,23.9
2019-05-09T15:10:34.055Z,23.9
2019-05-09T15:11:39.397Z,23.9
2019-05-09T15:12:41.637Z,24
2019-05-09T15:13:43.535Z,23.9
2019-05-09T15:14:48.210Z,23.9
2019-05-09T15:15:50.104Z,23.9
2019-05-09T15:16:51.726Z,24
2019-05-09T15:17:53.351Z,23.9
2019-05-09T15:18:55.248Z,24
2019-05-09T15:20:00.704Z,23.9
2019-05-09T15:21:02.413Z,23.9
2019-05-09T15:22:04.037Z,24
2019-05-09T15:23:09.286Z,23.9
2019-05-09T15:24:10.909Z,23.9
2019-05-09T15:25:12.839Z,23.9
2019-05-09T15:26:14.863Z,24
2019-05-09T15:27:18.763Z,24
2019-05-09T15:28:20.399Z,24
2019-05-09T15:29:22.024Z,23.9
2019-05-09T15:30:24.359Z,23.9
2019-05-09T15:31:29.063Z,24
2019-05-09T15:32:30.686Z,24
2019-05-09T15:33:32.310Z,24
2019-05-09T15:34:34.217Z,23.9
2019-05-09T15:35:35.837Z,24
2019-05-09T15:36:40.072Z,24
2019-05-09T15:37:41.709Z,23.9
2019-05-09T15:38:43.330Z,23.9
2019-05-09T15:39:44.963Z,23.9
2019-05-09T15:40:49.329Z,24
2019-05-09T15:41:51.229Z,23.9
2019-05-09T15:42:53.128Z,23.9
2019-05-09T15:43:54.738Z,23.9
2019-05-09T15:44:59.355Z,23.8
2019-05-09T15:46:01.255Z,23.9
2019-05-09T15:47:03.181Z,23.9
2019-05-09T15:48:07.493Z,23.9
2019-05-09T15:49:09.008Z,23.9
2019-05-09T15:50:18.620Z,24
2019-05-09T15:51:24.834Z,23.9
2019-05-09T15:52:32.563Z,24
2019-05-09T15:53:34.463Z,24
2019-05-09T15:54:38.801Z,24
2019-05-09T15:55:40.432Z,24
2019-05-09T15:56:44.197Z,24.1
2019-05-09T15:57:49.264Z,24
2019-05-09T15:58:50.890Z,24
2019-05-09T15:59:52.511Z,24
2019-05-09T16:00:54.410Z,24.1
2019-05-09T16:01:58.323Z,24.1
2019-05-09T16:03:00.367Z,24.1
2019-05-09T16:04:02.280Z,24.1
2019-05-09T16:05:03.922Z,24.1
2019-05-09T16:06:05.820Z,24.1
2019-05-09T16:07:10.121Z,24.1
2019-05-09T16:08:11.771Z,24.1
2019-05-09T16:09:13.662Z,24.1
2019-05-09T16:10:17.584Z,24.1
2019-05-09T16:11:19.213Z,24.1
2019-05-09T16:12:21.120Z,24.1
2019-05-09T16:13:23.047Z,24.2
2019-05-09T16:14:24.652Z,24.1
2019-05-09T16:15:29.109Z,24.1
2019-05-09T16:16:31.006Z,24
2019-05-09T16:17:32.614Z,24.1
2019-05-09T16:18:33.960Z,24
2019-05-09T16:19:37.625Z,24.1
2019-05-09T16:20:41.169Z,24.1
2019-05-09T16:21:43.291Z,24.1
2019-05-09T16:22:45.187Z,24.1
2019-05-09T16:23:49.670Z,24.1
2019-05-09T16:24:51.290Z,24.1
2019-05-09T16:25:53.188Z,24.1
2019-05-09T16:26:57.573Z,24.1
2019-05-09T16:27:59.139Z,24.1
2019-05-09T16:29:01.040Z,24.1
2019-05-09T16:30:02.938Z,24.1
2019-05-09T16:31:04.842Z,24.1
2019-05-09T16:32:08.735Z,24.2
2019-05-09T16:33:10.760Z,24.1
2019-05-09T16:34:12.660Z,24.1
2019-05-09T16:35:14.557Z,24.1
2019-05-09T16:36:18.634Z,24.1
2019-05-09T16:37:20.263Z,24.1
2019-05-09T16:38:21.863Z,24.1
2019-05-09T16:39:23.212Z,24.1
2019-05-09T16:40:25.108Z,24.1
2019-05-09T16:41:28.868Z,24
2019-05-09T16:42:30.767Z,24.1
2019-05-09T16:43:32.389Z,24.1
2019-05-09T16:44:33.993Z,24.1
2019-05-09T16:45:38.154Z,24.2
2019-05-09T16:46:40.100Z,24.1
2019-05-09T16:47:42.005Z,24.1
2019-05-09T16:48:43.631Z,24.1
2019-05-09T16:49:47.825Z,24.1
2019-05-09T16:51:00.361Z,24.1
2019-05-09T16:52:08.021Z,24
2019-05-09T16:53:09.940Z,24
2019-05-09T16:54:11.565Z,24.1
2019-05-09T16:55:13.188Z,24.1
2019-05-09T16:56:15.085Z,24
2019-05-09T16:57:18.961Z,24
2019-05-09T16:58:20.585Z,24
2019-05-09T16:59:22.204Z,23.9
2019-05-09T17:00:23.807Z,24
2019-05-09T17:01:28.452Z,23.9
2019-05-09T17:02:30.420Z,23.9
2019-05-09T17:03:32.021Z,23.9
2019-05-09T17:04:33.627Z,24
2019-05-09T17:05:37.207Z,23.9
2019-05-09T17:06:38.749Z,23.9
2019-05-09T17:07:40.353Z,23.9
2019-05-09T17:08:42.258Z,24
2019-05-09T17:09:44.149Z,23.9
2019-05-09T17:10:48.321Z,23.9
2019-05-09T17:11:50.204Z,23.9
2019-05-09T17:12:51.809Z,23.9
2019-05-09T17:13:53.435Z,23.9
2019-05-09T17:14:55.051Z,23.9
2019-05-09T17:16:01.044Z,23.8
2019-05-09T17:17:02.957Z,23.9
2019-05-09T17:18:04.572Z,23.8
2019-05-09T17:19:10.256Z,23.8
2019-05-09T17:20:11.874Z,23.8
2019-05-09T17:21:18.186Z,23.8
2019-05-09T17:22:27.192Z,23.8
2019-05-09T17:23:31.636Z,23.8
2019-05-09T17:24:33.533Z,23.9
2019-05-09T17:25:35.156Z,23.8
2019-05-09T17:26:39.381Z,23.8
2019-05-09T17:27:41.277Z,23.9
2019-05-09T17:28:42.886Z,23.8
2019-05-09T17:29:44.782Z,23.8
2019-05-09T17:30:49.475Z,23.8
2019-05-09T17:31:51.425Z,23.8
2019-05-09T17:32:53.033Z,23.9
2019-05-09T17:33:54.656Z,23.8
2019-05-09T17:34:59.311Z,23.8
2019-05-09T17:36:00.934Z,23.8
2019-05-09T17:37:02.983Z,23.8
2019-05-09T17:38:04.605Z,23.8
2019-05-09T17:39:09.052Z,23.8
2019-05-09T17:40:10.950Z,23.8
2019-05-09T17:41:17.666Z,23.8
2019-05-09T17:42:19.700Z,23.8
2019-05-09T17:43:21.598Z,23.9
2019-05-09T17:44:23.224Z,23.8
2019-05-09T17:45:24.275Z,23.8
2019-05-09T17:46:27.505Z,23.8
2019-05-09T17:47:29.527Z,23.8
2019-05-09T17:48:31.425Z,23.8
2019-05-09T17:49:32.477Z,23.8
2019-05-09T17:50:34.100Z,23.7
2019-05-09T17:51:39.231Z,23.8
2019-05-09T17:52:41.128Z,23.8
2019-05-09T17:53:43.079Z,23.7
2019-05-09T17:54:45.040Z,23.7
2019-05-09T17:55:49.437Z,23.8
2019-05-09T17:56:51.353Z,23.8
2019-05-09T17:57:52.963Z,23.7
2019-05-09T17:58:54.853Z,23.7
2019-05-09T17:59:59.218Z,23.7
2019-05-09T18:01:01.115Z,23.7
2019-05-09T18:02:03.013Z,23.7
2019-05-09T18:03:04.912Z,23.7
2019-05-09T18:04:08.855Z,23.7
2019-05-09T18:05:10.773Z,23.7
2019-05-09T18:06:12.397Z,23.6
2019-05-09T18:07:14.297Z,23.7
2019-05-09T18:08:18.839Z,23.7
2019-05-09T18:09:20.840Z,23.6
2019-05-09T18:10:22.728Z,23.6
2019-05-09T18:11:24.625Z,23.6
2019-05-09T18:12:27.677Z,23.6
2019-05-09T18:13:31.505Z,23.6
2019-05-09T18:14:34.376Z,23.7
2019-05-09T18:15:37.456Z,23.6
2019-05-09T18:16:39.352Z,23.6
2019-05-09T18:17:40.426Z,23.6
2019-05-09T18:18:42.321Z,23.5
2019-05-09T18:19:44.218Z,23.6
2019-05-09T18:20:45.845Z,23.6
2019-05-09T18:21:50.886Z,23.6
2019-05-09T18:22:52.806Z,23.6
2019-05-09T18:23:54.428Z,23.6
2019-05-09T18:24:57.681Z,23.6
2019-05-09T18:25:59.398Z,23.5
2019-05-09T18:27:01.304Z,23.6
2019-05-09T18:28:03.205Z,23.6
2019-05-09T18:29:05.101Z,23.6
2019-05-09T18:30:07.003Z,23.6
2019-05-09T18:31:08.622Z,23.5
2019-05-09T18:32:10.518Z,23.5
2019-05-09T18:33:12.414Z,23.5
2019-05-09T18:34:14.014Z,23.5
2019-05-09T18:35:15.916Z,23.6
2019-05-09T18:36:17.539Z,23.4
2019-05-09T18:37:19.438Z,23.5
2019-05-09T18:38:20.815Z,23.5
2019-05-09T18:39:22.707Z,23.5
2019-05-09T18:40:24.308Z,23.5
2019-05-09T18:41:28.660Z,23.5
2019-05-09T18:42:30.333Z,23.5
2019-05-09T18:43:32.243Z,23.5
2019-05-09T18:44:33.865Z,23.5
2019-05-09T18:45:37.521Z,23.5
2019-05-09T18:46:38.944Z,23.5
2019-05-09T18:47:40.840Z,23.5
2019-05-09T18:48:42.739Z,23.5
2019-05-09T18:49:44.363Z,23.6
2019-05-09T18:50:46.258Z,23.5
2019-05-09T18:52:01.613Z,23.6
2019-05-09T18:53:05.841Z,23.4
2019-05-09T18:54:07.194Z,23.5
2019-05-09T18:55:08.813Z,23.4
2019-05-09T18:56:10.711Z,23.5
2019-05-09T18:57:12.332Z,23.4
2019-05-09T18:58:14.279Z,23.4
2019-05-09T18:59:16.176Z,23.4
2019-05-09T19:00:18.074Z,23.5
2019-05-09T19:01:19.699Z,23.5
2019-05-09T19:02:21.596Z,23.5
2019-05-09T19:03:23.515Z,23.3
2019-05-09T19:04:25.144Z,23.5
2019-05-09T19:05:27.110Z,23.4
2019-05-09T19:06:29.075Z,23.4
2019-05-09T19:07:30.973Z,23.4
2019-05-09T19:08:32.871Z,23.4
2019-05-09T19:09:34.772Z,23.4
2019-05-09T19:10:36.669Z,23.4
2019-05-09T19:11:38.658Z,23.3
2019-05-09T19:12:40.691Z,23.4
2019-05-09T19:13:42.038Z,23.4
2019-05-09T19:14:43.972Z,23.5
2019-05-09T19:15:45.577Z,23.4
2019-05-09T19:16:47.204Z,23.3
2019-05-09T19:17:48.824Z,23.4
2019-05-09T19:18:50.435Z,23.3
2019-05-09T19:19:52.335Z,23.4
2019-05-09T19:20:54.006Z,23.4
2019-05-09T19:21:55.629Z,23.3
2019-05-09T19:22:57.256Z,23.3
2019-05-09T19:23:58.602Z,23.3
2019-05-09T19:25:00.209Z,23.3
2019-05-09T19:26:01.282Z,23.4
2019-05-09T19:27:02.905Z,23.3
2019-05-09T19:28:04.800Z,23.3
2019-05-09T19:29:06.131Z,23.3
2019-05-09T19:30:07.814Z,23.4
2019-05-09T19:31:09.713Z,23.3
2019-05-09T19:32:11.613Z,23.3
2019-05-09T19:33:13.236Z,23.3
2019-05-09T19:34:14.841Z,23.4
2019-05-09T19:35:16.738Z,23.2
2019-05-09T19:36:18.364Z,23.3
2019-05-09T19:37:20.260Z,23.2
2019-05-09T19:38:21.885Z,23.3
2019-05-09T19:39:23.507Z,23.4
2019-05-09T19:40:25.405Z,23.3
2019-05-09T19:41:26.755Z,23.3
2019-05-09T19:42:28.651Z,23.3
2019-05-09T19:43:30.019Z,23.3
2019-05-09T19:44:31.919Z,23.3
2019-05-09T19:45:33.522Z,23.3
2019-05-09T19:46:35.421Z,23.3
2019-05-09T19:47:37.325Z,23.4
2019-05-09T19:48:39.221Z,23.3
2019-05-09T19:49:40.829Z,23.3
2019-05-09T19:50:42.176Z,23.3
2019-05-09T19:51:44.071Z,23.3
2019-05-09T19:52:45.967Z,23.2
2019-05-09T19:53:47.614Z,23.3
2019-05-09T19:54:49.509Z,23.2
2019-05-09T19:55:51.117Z,23.3
2019-05-09T19:56:53.055Z,23.3
2019-05-09T19:57:54.952Z,23.3
2019-05-09T19:58:56.576Z,23.3
2019-05-09T19:59:58.471Z,23.4
2019-05-09T20:01:00.373Z,23.3
2019-05-09T20:02:02.123Z,23.2
2019-05-09T20:03:04.234Z,23.3
2019-05-09T20:04:05.834Z,23.3
2019-05-09T20:05:07.728Z,23.3
2019-05-09T20:06:09.054Z,23.2
2019-05-09T20:07:10.678Z,23.3
2019-05-09T20:08:12.642Z,23.2
2019-05-09T20:09:14.262Z,23.3
2019-05-09T20:10:15.894Z,23.3
2019-05-09T20:11:17.531Z,23.3
2019-05-09T20:12:19.431Z,23.3
2019-05-09T20:13:21.326Z,23.3
2019-05-09T20:14:22.951Z,23.3
2019-05-09T20:15:24.590Z,23.3
2019-05-09T20:16:26.501Z,23.3
2019-05-09T20:17:28.137Z,23.2
2019-05-09T20:18:30.024Z,23.3
2019-05-09T20:19:31.375Z,23.3
2019-05-09T20:20:33.006Z,23.3
2019-05-09T20:21:34.633Z,23.3
2019-05-09T20:22:36.235Z,23.2
2019-05-09T20:23:53.972Z,23.3
2019-05-09T20:24:55.611Z,23.3
2019-05-09T20:25:57.500Z,23.2
2019-05-09T20:26:59.162Z,23.3
2019-05-09T20:28:00.539Z,23.3
2019-05-09T20:29:02.193Z,23.2
2019-05-09T20:30:04.098Z,23.3
2019-05-09T20:31:06.033Z,23.3
2019-05-09T20:32:07.689Z,23.2
2019-05-09T20:33:09.616Z,23.2
2019-05-09T20:34:11.241Z,23.2
2019-05-09T20:35:12.882Z,23.3
2019-05-09T20:36:14.512Z,23.2
2019-05-09T20:37:15.867Z,23.1
2019-05-09T20:38:17.774Z,23.3
2019-05-09T20:39:19.453Z,23.3
2019-05-09T20:40:21.087Z,23.2
2019-05-09T20:41:22.988Z,23.3
2019-05-09T20:42:24.315Z,23.2
2019-05-09T20:43:25.372Z,23.3
2019-05-09T20:44:27.001Z,23.1
2019-05-09T20:45:28.897Z,23.2
2019-05-09T20:46:30.798Z,23.2
2019-05-09T20:47:32.419Z,23.2
2019-05-09T20:48:34.039Z,23.3
2019-05-09T20:49:35.660Z,23.2
2019-05-09T20:50:37.309Z,23.2
2019-05-09T20:51:38.915Z,23.2
2019-05-09T20:52:40.534Z,23.2
2019-05-09T20:53:42.444Z,23.2
2019-05-09T20:54:44.063Z,23.2
2019-05-09T20:55:45.960Z,23.2
2019-05-09T20:56:47.856Z,23.2
2019-05-09T20:57:51.904Z,23.2
2019-05-09T20:58:53.713Z,23.2
2019-05-09T20:59:55.327Z,23.3
2019-05-09T21:00:57.213Z,23.1
2019-05-09T21:01:58.933Z,23.1
2019-05-09T21:03:00.652Z,23.2
2019-05-09T21:04:02.556Z,23.2
2019-05-09T21:05:04.174Z,23.2
2019-05-09T21:06:06.072Z,23.2
2019-05-09T21:07:07.967Z,23.2
2019-05-09T21:08:09.587Z,23.2
2019-05-09T21:09:11.498Z,23.2
2019-05-09T21:10:13.395Z,23.2
2019-05-09T21:11:14.771Z,23.2
2019-05-09T21:12:16.393Z,23.2
2019-05-09T21:13:18.290Z,23.1
2019-05-09T21:14:19.898Z,23.1
2019-05-09T21:15:21.793Z,23.1
2019-05-09T21:16:23.422Z,23.2
2019-05-09T21:17:25.319Z,23.2
2019-05-09T21:18:27.260Z,23.2
2019-05-09T21:19:29.339Z,23.2
2019-05-09T21:20:31.236Z,23.1
2019-05-09T21:21:33.128Z,23.1
2019-05-09T21:22:35.024Z,23.1
2019-05-09T21:23:36.920Z,23.1
2019-05-09T21:24:38.542Z,23.2
2019-05-09T21:25:40.461Z,23.2
2019-05-09T21:26:42.369Z,23.2
2019-05-09T21:27:44.257Z,23.2
2019-05-09T21:28:45.860Z,23.1
2019-05-09T21:29:47.568Z,23.2
2019-05-09T21:30:49.458Z,23.2
2019-05-09T21:31:51.079Z,23.1
2019-05-09T21:32:52.975Z,23.1
2019-05-09T21:33:54.609Z,23.1
2019-05-09T21:34:56.497Z,23.1
2019-05-09T21:35:58.395Z,23.2
2019-05-09T21:37:00.015Z,23.1
2019-05-09T21:38:01.634Z,23.1
2019-05-09T21:39:03.533Z,23.1
2019-05-09T21:40:05.427Z,23.1
2019-05-09T21:41:07.029Z,23.1
2019-05-09T21:42:08.924Z,23.1
2019-05-09T21:43:10.528Z,23.1
2019-05-09T21:44:12.426Z,23.2
2019-05-09T21:45:14.030Z,23.1
2019-05-09T21:46:15.928Z,23.1
2019-05-09T21:47:17.265Z,23.2
2019-05-09T21:48:19.176Z,23.1
2019-05-09T21:49:20.503Z,23.1
2019-05-09T21:50:22.123Z,23
2019-05-09T21:51:24.018Z,23.1
2019-05-09T21:52:25.638Z,23
2019-05-09T21:53:39.762Z,23.1
2019-05-09T21:54:42.710Z,23.1
2019-05-09T21:55:44.606Z,23.1
2019-05-09T21:56:46.289Z,23.1
2019-05-09T21:57:47.906Z,23.1
2019-05-09T21:58:49.804Z,23.1
2019-05-09T21:59:51.406Z,23.1
2019-05-09T22:00:53.032Z,23.1
2019-05-09T22:01:54.929Z,23.1
2019-05-09T22:02:56.846Z,23.1
2019-05-09T22:03:58.791Z,23.1
2019-05-09T22:05:00.690Z,23.1
2019-05-09T22:06:02.678Z,23
2019-05-09T22:07:04.575Z,23.1
2019-05-09T22:08:05.897Z,23.1
2019-05-09T22:09:07.522Z,23.1
2019-05-09T22:10:09.123Z,23
2019-05-09T22:11:10.744Z,23